createdAt,value
2022-12-24T00:01:32.328Z,12.01
2022-12-24T00:03:58.716Z,12.04
2022-12-24T00:06:25.096Z,12.05
2022-12-24T00:08:51.417Z,12.06
2022-12-24T00:11:18.004Z,12.02
2022-12-24T00:13:44.406Z,11.99
2022-12-24T00:16:10.862Z,11.99
2022-12-24T00:18:43.378Z,11.91
2022-12-24T00:21:12.120Z,11.84
2022-12-24T00:23:38.487Z,11.80
2022-12-24T00:26:04.947Z,11.75
2022-12-24T00:28:31.327Z,11.77
2022-12-24T00:30:57.743Z,11.79
2022-12-24T00:33:24.812Z,11.83
2022-12-24T00:35:52.075Z,11.86
2022-12-24T00:38:18.506Z,11.86
2022-12-24T00:40:44.837Z,11.89
2022-12-24T00:43:11.151Z,11.94
2022-12-24T00:45:37.521Z,11.98
2022-12-24T00:48:03.883Z,11.98
2022-12-24T00:50:30.175Z,12.02
2022-12-24T00:52:56.594Z,12.02
2022-12-24T00:55:22.925Z,12.05
2022-12-24T00:57:49.261Z,12.06
2022-12-24T01:00:17.763Z,12.07
2022-12-24T01:02:44.453Z,12.07
2022-12-24T01:05:11.289Z,12.08
2022-12-24T01:07:38.985Z,12.12
2022-12-24T01:10:05.910Z,12.12
2022-12-24T01:12:32.466Z,12.13
2022-12-24T01:14:58.818Z,12.13
2022-12-24T01:17:25.092Z,12.14
2022-12-24T01:19:51.438Z,12.13
2022-12-24T01:22:17.685Z,12.13
2022-12-24T01:24:44.168Z,12.14
2022-12-24T01:27:10.483Z,12.15
2022-12-24T01:29:36.757Z,12.13
2022-12-24T01:32:03.168Z,12.09
2022-12-24T01:34:29.648Z,12.05
2022-12-24T01:36:55.992Z,12.05
2022-12-24T01:39:22.283Z,12.01
2022-12-24T01:42:07.109Z,11.99
2022-12-24T01:44:37.002Z,11.99
2022-12-24T01:47:09.225Z,11.95
2022-12-24T01:49:37.345Z,11.96
2022-12-24T01:52:16.255Z,11.88
2022-12-24T01:54:54.810Z,11.83
2022-12-24T01:57:23.337Z,11.84
2022-12-24T01:59:51.727Z,11.81
2022-12-24T02:02:18.398Z,11.78
2022-12-24T02:04:53.686Z,11.76
2022-12-24T02:07:20.155Z,11.72
2022-12-24T02:09:47.406Z,11.72
2022-12-24T02:12:13.974Z,11.67
2022-12-24T02:14:40.429Z,11.67
2022-12-24T02:17:18.947Z,11.65
2022-12-24T02:19:51.520Z,11.67
2022-12-24T02:22:27.069Z,11.61
2022-12-24T02:25:02.645Z,11.59
2022-12-24T02:27:47.772Z,11.53
2022-12-24T02:30:16.477Z,11.52
2022-12-24T02:32:57.840Z,11.51
2022-12-24T02:35:30.572Z,11.51
2022-12-24T02:38:06.456Z,11.54
2022-12-24T02:40:48.719Z,11.54
2022-12-24T02:43:17.243Z,11.65
2022-12-24T02:45:44.961Z,11.64
2022-12-24T02:48:13.585Z,11.66
2022-12-24T02:50:53.697Z,11.70
2022-12-24T02:53:20.052Z,11.70
2022-12-24T02:56:01.969Z,11.73
2022-12-24T02:58:31.006Z,11.73
2022-12-24T03:01:16.099Z,11.77
2022-12-24T03:03:49.125Z,11.78
2022-12-24T03:06:53.830Z,11.79
2022-12-24T03:09:38.803Z,11.82
2022-12-24T03:12:10.420Z,11.84
2022-12-24T03:14:38.177Z,11.83
2022-12-24T03:17:04.560Z,11.83
2022-12-24T03:19:31.464Z,11.82
2022-12-24T03:21:59.845Z,11.82
2022-12-24T03:24:26.252Z,11.83
2022-12-24T03:26:52.843Z,11.81
2022-12-24T03:29:19.320Z,11.80
2022-12-24T03:31:47.202Z,11.79
2022-12-24T03:34:14.749Z,11.76
2022-12-24T03:36:41.847Z,11.76
2022-12-24T03:39:09.066Z,11.78
2022-12-24T03:41:36.188Z,11.79
2022-12-24T03:44:02.818Z,11.73
2022-12-24T03:46:29.135Z,11.64
2022-12-24T03:48:55.468Z,11.59
2022-12-24T03:51:23.330Z,11.58
2022-12-24T03:53:51.775Z,11.55
2022-12-24T03:56:18.186Z,11.51
2022-12-24T03:58:44.918Z,11.45
2022-12-24T04:01:11.357Z,11.41
2022-12-24T04:03:37.947Z,11.34
2022-12-24T04:06:08.296Z,11.31
2022-12-24T04:08:34.813Z,11.26
2022-12-24T04:11:06.172Z,11.25
2022-12-24T04:13:35.968Z,11.20
2022-12-24T04:16:04.577Z,11.17
2022-12-24T04:18:31.058Z,11.10
2022-12-24T04:20:57.687Z,11.08
2022-12-24T04:23:24.017Z,11.01
2022-12-24T04:25:50.789Z,10.96
2022-12-24T04:28:17.484Z,10.94
2022-12-24T04:30:44.162Z,10.91
2022-12-24T04:33:10.660Z,10.91
2022-12-24T04:35:41.328Z,10.90
2022-12-24T04:38:08.436Z,10.90
2022-12-24T04:40:34.880Z,10.85
2022-12-24T04:43:01.244Z,10.84
2022-12-24T04:45:27.610Z,10.90
2022-12-24T04:47:54.098Z,10.92
2022-12-24T04:50:20.487Z,10.95
2022-12-24T04:52:46.872Z,10.95
2022-12-24T04:55:13.293Z,10.95
2022-12-24T04:57:39.684Z,10.95
2022-12-24T05:00:06.890Z,10.94
2022-12-24T05:02:33.557Z,10.94
2022-12-24T05:05:00.147Z,10.92
2022-12-24T05:07:26.398Z,10.89
2022-12-24T05:09:52.668Z,10.86
2022-12-24T05:12:18.934Z,10.83
2022-12-24T05:14:45.373Z,10.82
2022-12-24T05:17:11.717Z,10.76
2022-12-24T05:19:38.069Z,10.71
2022-12-24T05:22:23.011Z,10.69
2022-12-24T05:25:07.730Z,10.69
2022-12-24T05:27:34.132Z,10.69
2022-12-24T05:30:00.439Z,10.66
2022-12-24T05:32:27.268Z,10.47
2022-12-24T05:34:53.653Z,10.69
2022-12-24T05:37:19.915Z,10.67
2022-12-24T05:39:46.238Z,10.70
2022-12-24T05:42:12.545Z,10.73
2022-12-24T05:44:38.803Z,10.77
2022-12-24T05:47:05.159Z,10.75
2022-12-24T05:49:31.725Z,10.79
2022-12-24T05:51:58.115Z,10.77
2022-12-24T05:54:24.402Z,10.77
2022-12-24T05:56:50.654Z,10.76
2022-12-24T05:59:16.906Z,10.75
2022-12-24T06:01:47.182Z,10.75
2022-12-24T06:04:14.068Z,10.73
2022-12-24T06:06:40.665Z,10.75
2022-12-24T06:09:07.372Z,10.79
2022-12-24T06:11:33.704Z,10.84
2022-12-24T06:14:00.071Z,10.85
2022-12-24T06:16:26.592Z,10.81
2022-12-24T06:18:53.063Z,10.79
2022-12-24T06:21:19.704Z,10.78
2022-12-24T06:23:46.450Z,10.77
2022-12-24T06:26:14.214Z,10.80
2022-12-24T06:28:40.648Z,10.87
2022-12-24T06:31:10.638Z,10.87
2022-12-24T06:33:37.032Z,10.86
2022-12-24T06:36:06.813Z,10.88
2022-12-24T06:38:35.621Z,10.91
2022-12-24T06:41:05.700Z,10.92
2022-12-24T06:43:34.511Z,10.96
2022-12-24T06:46:01.792Z,10.99
2022-12-24T06:48:28.196Z,11.00
2022-12-24T06:50:54.585Z,11.04
2022-12-24T06:53:21.127Z,11.07
2022-12-24T06:55:47.533Z,11.06
2022-12-24T06:58:13.934Z,11.03
2022-12-24T07:00:40.341Z,10.98
2022-12-24T07:03:06.701Z,10.96
2022-12-24T07:05:32.965Z,10.95
2022-12-24T07:07:59.325Z,10.95
2022-12-24T07:10:25.720Z,10.93
2022-12-24T07:12:51.970Z,10.94
2022-12-24T07:15:18.487Z,10.95
2022-12-24T07:17:45.205Z,10.96
2022-12-24T07:20:12.336Z,10.94
2022-12-24T07:22:38.699Z,10.91
2022-12-24T07:25:05.248Z,10.92
2022-12-24T07:27:31.617Z,10.93
2022-12-24T07:29:57.993Z,10.91
2022-12-24T07:32:24.375Z,10.92
2022-12-24T07:34:51.763Z,10.91
2022-12-24T07:37:18.126Z,10.91
2022-12-24T07:39:44.968Z,10.92
2022-12-24T07:42:11.498Z,10.94
2022-12-24T07:44:38.107Z,10.99
2022-12-24T07:47:04.602Z,11.00
2022-12-24T07:49:31.149Z,11.01
2022-12-24T07:51:59.787Z,11.02
2022-12-24T07:54:26.127Z,11.03
2022-12-24T07:56:52.538Z,11.02
2022-12-24T07:59:18.960Z,11.03
2022-12-24T08:01:45.693Z,11.13
2022-12-24T08:04:12.268Z,11.14
2022-12-24T08:06:39.214Z,11.14
2022-12-24T08:09:06.063Z,11.17
2022-12-24T08:11:32.342Z,11.20
2022-12-24T08:13:58.781Z,11.26
2022-12-24T08:16:25.317Z,11.28
2022-12-24T08:18:51.662Z,11.29
2022-12-24T08:21:18.029Z,11.34
2022-12-24T08:23:46.126Z,11.38
2022-12-24T08:26:12.458Z,11.44
2022-12-24T08:28:39.142Z,11.48
2022-12-24T08:31:15.843Z,11.52
2022-12-24T08:33:42.162Z,11.59
2022-12-24T08:36:08.770Z,11.63
2022-12-24T08:38:35.189Z,11.70
2022-12-24T08:41:07.444Z,11.80
2022-12-24T08:43:33.877Z,11.85
2022-12-24T08:46:04.938Z,11.85
2022-12-24T08:48:32.084Z,11.83
2022-12-24T08:50:58.477Z,11.84
2022-12-24T08:53:24.935Z,11.79
2022-12-24T08:55:55.937Z,11.78
2022-12-24T08:58:22.782Z,11.79
2022-12-24T09:00:49.357Z,11.75
2022-12-24T09:03:19.549Z,11.74
2022-12-24T09:05:49.961Z,11.69
2022-12-24T09:08:16.424Z,11.71
2022-12-24T09:10:42.729Z,11.73
2022-12-24T09:13:09.105Z,11.74
2022-12-24T09:15:35.558Z,11.74
2022-12-24T09:18:02.032Z,11.73
2022-12-24T09:20:28.563Z,11.78
2022-12-24T09:22:54.851Z,11.81
2022-12-24T09:25:21.314Z,11.84
2022-12-24T09:27:47.971Z,11.86
2022-12-24T09:30:14.813Z,11.89
2022-12-24T09:32:41.205Z,11.90
2022-12-24T09:35:07.727Z,11.87
2022-12-24T09:37:34.047Z,11.84
2022-12-24T09:40:00.429Z,11.84
2022-12-24T09:42:34.082Z,11.87
2022-12-24T09:45:08.120Z,11.85
2022-12-24T09:47:34.596Z,11.87
2022-12-24T09:50:03.279Z,11.92
2022-12-24T09:52:32.911Z,11.94
2022-12-24T09:55:04.504Z,11.96
2022-12-24T09:57:39.721Z,12.01
2022-12-24T10:00:16.465Z,12.05
2022-12-24T10:02:43.060Z,12.07
2022-12-24T10:05:13.679Z,12.12
2022-12-24T10:07:46.251Z,12.13
2022-12-24T10:10:27.388Z,12.11
2022-12-24T10:13:04.416Z,12.13
2022-12-24T10:15:35.366Z,12.15
2022-12-24T10:18:08.098Z,12.17
2022-12-24T10:20:52.467Z,12.22
2022-12-24T10:23:28.221Z,12.28
2022-12-24T10:26:18.076Z,12.30
2022-12-24T10:28:53.272Z,12.37
2022-12-24T10:31:23.080Z,12.38
2022-12-24T10:33:53.102Z,12.45
2022-12-24T10:36:23.353Z,12.47
2022-12-24T10:38:49.637Z,12.48
2022-12-24T10:41:16.234Z,12.51
2022-12-24T10:43:43.891Z,12.56
2022-12-24T10:46:19.495Z,12.62
2022-12-24T10:48:51.093Z,12.59
2022-12-24T10:51:37.925Z,12.57
2022-12-24T10:54:11.888Z,12.55
2022-12-24T10:56:43.198Z,12.47
2022-12-24T10:59:30.550Z,12.46
2022-12-24T11:01:58.271Z,12.45
2022-12-24T11:04:28.750Z,12.42
2022-12-24T11:07:00.409Z,12.44
2022-12-24T11:09:26.927Z,12.44
2022-12-24T11:11:54.530Z,12.48
2022-12-24T11:14:21.264Z,12.53
2022-12-24T11:16:52.576Z,12.58
2022-12-24T11:19:20.629Z,12.70
2022-12-24T11:21:47.099Z,12.74
2022-12-24T11:24:13.535Z,12.69
2022-12-24T11:26:41.183Z,12.69
2022-12-24T11:29:24.190Z,12.67
2022-12-24T11:31:52.597Z,12.74
2022-12-24T11:34:19.049Z,12.67
2022-12-24T11:36:45.683Z,12.60
2022-12-24T11:39:19.104Z,12.47
2022-12-24T11:41:45.537Z,12.38
2022-12-24T11:44:12.508Z,12.40
2022-12-24T11:46:46.206Z,12.41
2022-12-24T11:49:12.580Z,12.47
2022-12-24T11:51:40.272Z,12.55
2022-12-24T11:54:09.564Z,12.61
2022-12-24T11:56:43.719Z,12.65
2022-12-24T11:59:22.197Z,12.67
2022-12-24T12:01:48.660Z,12.72
2022-12-24T12:04:16.955Z,12.69
2022-12-24T12:07:01.987Z,12.67
2022-12-24T12:09:28.281Z,12.64
2022-12-24T12:11:58.843Z,12.63
2022-12-24T12:14:32.811Z,12.73
2022-12-24T12:17:03.579Z,12.77
2022-12-24T12:19:37.660Z,12.84
2022-12-24T12:22:05.334Z,12.93
2022-12-24T12:24:36.054Z,12.96
2022-12-24T12:27:25.506Z,12.97
2022-12-24T12:29:58.991Z,13.00
2022-12-24T12:32:27.755Z,13.05
2022-12-24T12:34:58.603Z,13.04
2022-12-24T12:37:29.377Z,13.00
2022-12-24T12:39:55.787Z,13.04
2022-12-24T12:42:29.236Z,13.07
2022-12-24T12:45:05.238Z,13.04
2022-12-24T12:47:31.571Z,13.02
2022-12-24T12:50:09.697Z,13.08
2022-12-24T12:52:43.629Z,13.09
2022-12-24T12:55:28.655Z,13.13
2022-12-24T12:57:59.760Z,13.18
2022-12-24T13:00:28.810Z,13.12
2022-12-24T13:03:07.649Z,13.13
2022-12-24T13:05:37.164Z,13.09
2022-12-24T13:08:17.217Z,13.12
2022-12-24T13:10:55.885Z,13.08
2022-12-24T13:13:25.405Z,13.05
2022-12-24T13:15:57.822Z,12.94
2022-12-24T13:18:30.236Z,12.88
2022-12-24T13:20:56.821Z,12.86
2022-12-24T13:23:24.468Z,12.83
2022-12-24T13:25:52.316Z,12.82
2022-12-24T13:28:24.824Z,12.84
2022-12-24T13:30:51.241Z,12.82
2022-12-24T13:33:43.565Z,12.87
2022-12-24T13:36:16.885Z,12.90
2022-12-24T13:38:44.744Z,12.91
2022-12-24T13:41:36.158Z,12.92
2022-12-24T13:44:10.964Z,12.93
2022-12-24T13:46:59.572Z,12.96
2022-12-24T13:49:29.141Z,12.90
2022-12-24T13:52:25.166Z,12.93
2022-12-24T13:54:54.650Z,12.95
2022-12-24T13:57:30.161Z,12.91
2022-12-24T14:00:05.875Z,12.81
2022-12-24T14:02:34.946Z,12.77
2022-12-24T14:05:03.316Z,12.73
2022-12-24T14:07:30.381Z,12.59
2022-12-24T14:09:57.377Z,12.53
2022-12-24T14:12:33.132Z,12.53
2022-12-24T14:15:19.442Z,12.48
2022-12-24T14:17:47.805Z,12.47
2022-12-24T14:20:15.720Z,12.45
2022-12-24T14:22:45.417Z,12.40
2022-12-24T14:25:19.706Z,12.37
2022-12-24T14:27:52.330Z,12.31
2022-12-24T14:30:20.108Z,12.28
2022-12-24T14:32:47.223Z,12.27
2022-12-24T14:35:13.623Z,12.23
2022-12-24T14:37:41.117Z,12.18
2022-12-24T14:40:09.042Z,12.20
2022-12-24T14:42:54.025Z,12.27
2022-12-24T14:45:29.529Z,12.38
2022-12-24T14:48:15.704Z,12.44
2022-12-24T14:50:51.103Z,12.48
2022-12-24T14:53:19.245Z,12.51
2022-12-24T14:55:47.241Z,12.52
2022-12-24T14:58:24.544Z,12.50
2022-12-24T15:00:51.611Z,12.45
2022-12-24T15:03:19.237Z,12.45
2022-12-24T15:05:50.904Z,12.44
2022-12-24T15:08:23.821Z,12.45
2022-12-24T15:10:52.325Z,12.44
2022-12-24T15:13:18.609Z,12.46
2022-12-24T15:15:51.965Z,12.44
2022-12-24T15:18:22.258Z,12.41
2022-12-24T15:20:51.061Z,12.40
2022-12-24T15:23:25.941Z,12.42
2022-12-24T15:25:52.333Z,12.40
2022-12-24T15:28:19.729Z,12.42
2022-12-24T15:30:46.160Z,12.45
2022-12-24T15:33:12.581Z,12.45
2022-12-24T15:35:55.574Z,12.44
2022-12-24T15:38:24.452Z,12.42
2022-12-24T15:40:51.374Z,12.37
2022-12-24T15:43:18.000Z,12.35
2022-12-24T15:45:51.283Z,12.35
2022-12-24T15:48:21.101Z,12.35
2022-12-24T15:50:48.809Z,12.33
2022-12-24T15:53:19.330Z,12.31
2022-12-24T15:56:07.047Z,12.28
2022-12-24T15:58:40.917Z,12.27
2022-12-24T16:01:13.591Z,12.24
2022-12-24T16:03:41.181Z,12.20
2022-12-24T16:06:08.935Z,12.20
2022-12-24T16:08:36.385Z,12.21
2022-12-24T16:11:05.768Z,12.20
2022-12-24T16:13:36.288Z,12.19
2022-12-24T16:16:05.987Z,12.15
2022-12-24T16:18:37.889Z,12.07
2022-12-24T16:21:05.217Z,12.01
2022-12-24T16:23:57.721Z,11.91
2022-12-24T16:26:24.157Z,11.86
2022-12-24T16:28:50.587Z,11.84
2022-12-24T16:31:28.848Z,11.78
2022-12-24T16:33:57.576Z,11.55
2022-12-24T16:36:24.085Z,11.55
2022-12-24T16:39:09.001Z,11.56
2022-12-24T16:41:55.425Z,11.37
2022-12-24T16:44:21.766Z,11.27
2022-12-24T16:46:48.524Z,11.25
2022-12-24T16:49:16.899Z,11.21
2022-12-24T16:51:43.311Z,11.21
2022-12-24T16:54:11.692Z,11.23
2022-12-24T16:56:38.306Z,11.24
2022-12-24T16:59:04.772Z,11.24
2022-12-24T17:01:32.119Z,11.24
2022-12-24T17:03:58.837Z,11.21
2022-12-24T17:06:25.265Z,11.18
2022-12-24T17:08:51.597Z,11.02
2022-12-24T17:11:21.689Z,11.01
2022-12-24T17:13:48.136Z,11.03
2022-12-24T17:16:14.601Z,10.83
2022-12-24T17:18:41.024Z,10.68
2022-12-24T17:21:07.530Z,10.73
2022-12-24T17:23:33.865Z,10.68
2022-12-24T17:26:00.402Z,10.74
2022-12-24T17:28:27.070Z,10.78
2022-12-24T17:30:53.672Z,10.83
2022-12-24T17:33:20.199Z,10.86
2022-12-24T17:35:48.337Z,10.86
2022-12-24T17:38:14.807Z,10.85
2022-12-24T17:40:41.235Z,10.76
2022-12-24T17:43:07.654Z,10.68
2022-12-24T17:45:34.130Z,10.65
2022-12-24T17:48:00.489Z,10.61
2022-12-24T17:50:26.916Z,10.47
2022-12-24T17:52:53.300Z,10.51
2022-12-24T17:55:19.708Z,10.59
2022-12-24T17:57:46.139Z,10.61
2022-12-24T18:00:12.993Z,10.47
2022-12-24T18:02:39.626Z,10.49
2022-12-24T18:05:06.220Z,10.45
2022-12-24T18:07:32.559Z,10.34
2022-12-24T18:09:59.844Z,10.24
2022-12-24T18:12:26.360Z,10.16
2022-12-24T18:14:52.765Z,9.96
2022-12-24T18:17:19.139Z,9.77
2022-12-24T18:19:45.584Z,9.62
2022-12-24T18:22:12.013Z,9.59
2022-12-24T18:24:38.500Z,9.67
2022-12-24T18:27:04.842Z,9.82
2022-12-24T18:29:31.305Z,9.92
2022-12-24T18:31:57.761Z,9.87
2022-12-24T18:34:24.300Z,9.91
2022-12-24T18:36:55.144Z,10.00
2022-12-24T18:39:22.104Z,10.14
2022-12-24T18:41:49.455Z,10.25
2022-12-24T18:44:20.861Z,10.30
2022-12-24T18:46:51.047Z,10.15
2022-12-24T18:49:17.615Z,10.16
2022-12-24T18:51:44.125Z,10.25
2022-12-24T18:54:10.625Z,10.32
2022-12-24T18:56:37.048Z,10.13
2022-12-24T18:59:03.771Z,9.94
2022-12-24T19:01:31.843Z,9.88
2022-12-24T19:03:59.004Z,9.79
2022-12-24T19:06:25.706Z,9.74
2022-12-24T19:09:00.786Z,9.93
2022-12-24T19:11:28.999Z,10.09
2022-12-24T19:13:55.476Z,10.06
2022-12-24T19:16:22.302Z,10.15
2022-12-24T19:18:49.101Z,10.19
2022-12-24T19:21:17.025Z,10.20
2022-12-24T19:23:43.820Z,10.23
2022-12-24T19:26:10.771Z,10.26
2022-12-24T19:28:37.622Z,10.26
2022-12-24T19:31:05.467Z,10.27
2022-12-24T19:33:41.977Z,10.26
2022-12-24T19:36:10.949Z,10.26
2022-12-24T19:38:37.423Z,10.15
2022-12-24T19:41:07.419Z,10.12
2022-12-24T19:43:36.649Z,10.02
2022-12-24T19:46:03.101Z,10.03
2022-12-24T19:48:29.566Z,10.07
2022-12-24T19:51:00.248Z,10.05
2022-12-24T19:53:26.672Z,9.82
2022-12-24T19:55:53.138Z,9.71
2022-12-24T19:58:19.565Z,9.63
2022-12-24T20:00:46.346Z,9.67
2022-12-24T20:03:12.845Z,9.81
2022-12-24T20:05:42.930Z,9.99
2022-12-24T20:08:09.301Z,10.08
2022-12-24T20:10:42.871Z,10.10
2022-12-24T20:13:09.860Z,10.09
2022-12-24T20:15:40.176Z,10.13
2022-12-24T20:18:06.837Z,10.22
2022-12-24T20:20:33.202Z,10.24
2022-12-24T20:22:59.672Z,10.25
2022-12-24T20:25:26.076Z,10.20
2022-12-24T20:27:52.719Z,10.22
2022-12-24T20:30:19.153Z,10.33
2022-12-24T20:32:45.565Z,10.36
2022-12-24T20:35:11.922Z,10.40
2022-12-24T20:37:45.490Z,10.38
2022-12-24T20:40:12.535Z,10.38
2022-12-24T20:42:39.006Z,10.41
2022-12-24T20:45:05.907Z,10.40
2022-12-24T20:47:33.223Z,10.38
2022-12-24T20:49:59.746Z,10.43
2022-12-24T20:52:26.288Z,10.38
2022-12-24T20:54:52.701Z,10.28
2022-12-24T20:57:25.167Z,10.28
2022-12-24T20:59:53.244Z,10.33
2022-12-24T21:02:19.930Z,10.32
2022-12-24T21:04:46.572Z,10.33
2022-12-24T21:07:14.358Z,10.29
2022-12-24T21:09:41.209Z,10.14
2022-12-24T21:12:28.394Z,10.05
2022-12-24T21:14:54.828Z,10.06
2022-12-24T21:17:21.515Z,10.12
2022-12-24T21:19:48.067Z,10.12
2022-12-24T21:22:14.523Z,10.16
2022-12-24T21:24:40.897Z,10.08
2022-12-24T21:27:07.226Z,10.01
2022-12-24T21:29:33.570Z,9.90
2022-12-24T21:32:00.295Z,9.92
2022-12-24T21:34:26.801Z,9.97
2022-12-24T21:36:53.158Z,9.88
2022-12-24T21:39:19.550Z,9.97
2022-12-24T21:41:45.952Z,10.04
2022-12-24T21:44:12.374Z,10.09
2022-12-24T21:46:38.817Z,10.14
2022-12-24T21:49:23.761Z,10.15
2022-12-24T21:51:50.221Z,10.16
2022-12-24T21:54:33.040Z,10.15
2022-12-24T21:57:21.058Z,10.26
2022-12-24T21:59:51.661Z,10.28
2022-12-24T22:02:19.307Z,10.33
2022-12-24T22:04:46.050Z,10.28
2022-12-24T22:07:37.848Z,10.27
2022-12-24T22:10:23.355Z,10.28
2022-12-24T22:12:49.760Z,10.30
2022-12-24T22:15:16.288Z,10.27
2022-12-24T22:17:42.743Z,10.30
2022-12-24T22:20:09.752Z,10.27
2022-12-24T22:22:36.173Z,10.32
2022-12-24T22:25:02.506Z,10.34
2022-12-24T22:27:28.919Z,10.25
2022-12-24T22:29:55.393Z,10.25
2022-12-24T22:32:21.768Z,10.28
2022-12-24T22:34:49.450Z,10.23
2022-12-24T22:37:16.370Z,10.26
2022-12-24T22:39:43.040Z,10.27
2022-12-24T22:42:09.481Z,10.26
2022-12-24T22:44:35.870Z,10.20
2022-12-24T22:47:02.543Z,10.18
2022-12-24T22:49:28.943Z,10.14
2022-12-24T22:51:58.578Z,10.07
2022-12-24T22:54:25.321Z,10.07
2022-12-24T22:56:51.717Z,10.06
2022-12-24T22:59:18.288Z,10.10
2022-12-24T23:01:45.952Z,10.07
2022-12-24T23:04:12.994Z,10.09
2022-12-24T23:06:40.072Z,10.05
2022-12-24T23:09:07.421Z,10.03
2022-12-24T23:11:33.921Z,10.02
2022-12-24T23:14:18.848Z,10.03
2022-12-24T23:16:45.279Z,10.06
2022-12-24T23:19:11.752Z,10.03
2022-12-24T23:21:38.342Z,10.07
2022-12-24T23:24:05.023Z,10.02
2022-12-24T23:26:31.451Z,9.99
2022-12-24T23:28:57.966Z,10.02
2022-12-24T23:31:24.704Z,10.02
2022-12-24T23:33:51.384Z,9.94
2022-12-24T23:36:18.107Z,9.96
2022-12-24T23:38:44.581Z,9.97
2022-12-24T23:41:11.446Z,9.92
2022-12-24T23:43:37.967Z,9.95
2022-12-24T23:46:04.459Z,9.96
2022-12-24T23:48:30.961Z,9.99
2022-12-24T23:51:04.996Z,9.97
2022-12-24T23:53:31.576Z,9.99
2022-12-24T23:55:57.998Z,10.01
2022-12-24T23:58:24.382Z,9.99
